Terminal Aerodrome Forecast
Issued by NWS Nashville, TN

Current Version | Previous Version | Text Only | Print | Product List | Glossary Off
Versions: 1 2 3 4 5 6 7 8 9 10 11 12 13 14 15 16 17 18 19 20

000
FTUS44 KOHX 221700
TAFBNA
TAF
KBNA 221725Z 2218/2318 16011KT P6SM OVC015
     FM222000 15012KT 5SM -SHRA BR OVC015
     FM230000 17014KT P6SM VCSH OVC010
     FM230400 17012KT 5SM BR OVC008
     FM230800 18007KT 4SM BR OVC006
      TEMPO 2309/2313 -SHRA
     FM231300 27003KT 4SM -SHRA BR OVC012=

USA.gov is the U.S. government's official web portal to all federal, state and local government web resources and services.